Time;durP1;ratioP1;P1;durP2;ratioP2;P2;SDS_P1;SDS_P2;PMS_P1;PMS_P2;Temp;Humidity;BMP_temperature;BMP_pressure;BME280_temperature;BME280_humidity;BME280_pressure;Samples;Min_cycle;Max_cycle;Signal;HPM_P1;HPM_P2
2022/12/03 00:01:41;;;;;;;28.27;14.07;;;1.40;99.90;;;;;;5138619;28;20472;-62
2022/12/03 00:04:08;;;;;;;26.47;13.63;;;1.40;99.90;;;;;;5139566;28;20436;-62
2022/12/03 00:06:35;;;;;;;28.57;13.33;;;1.40;99.90;;;;;;5133622;28;20448;-61
2022/12/03 00:09:03;;;;;;;23.97;12.30;;;1.40;99.90;;;;;;5140534;28;20474;-61
2022/12/03 00:11:30;;;;;;;28.13;12.87;;;1.40;99.90;;;;;;5139827;28;20450;-61
2022/12/03 00:13:57;;;;;;;31.67;9.50;;;1.40;99.90;;;;;;5138828;28;20461;-61
2022/12/03 00:16:24;;;;;;;25.73;14.13;;;1.40;99.90;;;;;;5139500;28;20420;-63
2022/12/03 00:18:52;;;;;;;25.53;12.40;;;1.40;99.90;;;;;;5139460;28;20464;-63
2022/12/03 00:21:19;;;;;;;24.53;11.30;;;1.40;99.90;;;;;;5139222;28;20448;-59
2022/12/03 00:23:46;;;;;;;33.90;14.20;;;1.40;99.90;;;;;;5139974;28;20467;-61
2022/12/03 00:26:13;;;;;;;27.03;12.90;;;1.30;99.90;;;;;;5139494;28;20448;-61
2022/12/03 00:28:40;;;;;;;27.90;15.57;;;1.30;99.90;;;;;;5139925;28;20424;-61
2022/12/03 00:31:10;;;;;;;28.07;14.00;;;1.30;99.90;;;;;;5139414;28;20498;-61
2022/12/03 00:33:37;;;;;;;24.63;12.73;;;1.40;99.90;;;;;;5139635;28;20437;-62
2022/12/03 00:36:06;;;;;;;27.70;13.97;;;1.40;99.90;;;;;;5138489;28;20490;-62
2022/12/03 00:51:32;;;;;;;29.60;11.90;;;1.20;99.90;;;;;;5168778;22;20480;-52
2022/12/03 00:53:59;;;;;;;29.90;15.77;;;1.20;99.90;;;;;;5079976;28;20431;-53
2022/12/03 00:56:26;;;;;;;38.90;12.63;;;1.30;99.90;;;;;;5079062;28;20477;-52
2022/12/03 00:58:56;;;;;;;26.10;12.87;;;1.30;99.90;;;;;;5079085;28;20452;-49
2022/12/03 01:01:23;;;;;;;28.27;15.23;;;1.30;99.90;;;;;;5079726;28;20457;-51
2022/12/03 01:04:00;;;;;;;31.53;13.20;;;1.30;99.90;;;;;;5078914;28;20467;-58
2022/12/03 01:06:28;;;;;;;26.70;13.17;;;1.30;99.90;;;;;;5079567;28;20424;-54
2022/12/03 01:09:00;;;;;;;28.60;13.30;;;1.30;99.90;;;;;;5079747;28;20451;-52
2022/12/03 01:11:40;;;;;;;27.87;11.90;;;1.30;99.90;;;;;;5079346;28;20487;-49
2022/12/03 01:14:11;;;;;;;26.67;12.73;;;1.30;99.90;;;;;;5078469;28;20443;-53
2022/12/03 01:16:40;;;;;;;28.33;12.90;;;1.30;99.90;;;;;;5079065;28;20477;-59
2022/12/03 01:19:09;;;;;;;23.57;10.77;;;1.30;99.90;;;;;;5078411;28;20431;-55
2022/12/03 01:21:37;;;;;;;25.67;13.50;;;1.30;99.90;;;;;;5078533;28;20443;-60
2022/12/03 01:24:08;;;;;;;31.37;14.30;;;1.30;99.90;;;;;;5078967;28;20443;-55
2022/12/03 01:26:35;;;;;;;40.00;14.93;;;1.30;99.90;;;;;;5079380;28;20447;-44
2022/12/03 01:29:02;;;;;;;31.97;13.87;;;1.30;99.90;;;;;;5078927;28;20427;-54
2022/12/03 01:34:15;;;;;;;23.07;11.87;;;1.30;99.90;;;;;;5073251;28;20407;-53
2022/12/03 01:36:42;;;;;;;33.53;14.57;;;1.30;99.90;;;;;;5078651;28;20474;-50
2022/12/03 01:39:11;;;;;;;31.30;14.30;;;1.30;99.90;;;;;;5078542;28;20443;-54
2022/12/03 01:41:41;;;;;;;29.03;13.00;;;1.30;99.90;;;;;;5078361;28;20535;-55
2022/12/03 01:44:16;;;;;;;22.90;13.03;;;1.30;99.90;;;;;;5078082;28;20427;-50
2022/12/03 01:46:44;;;;;;;27.97;13.87;;;1.30;99.90;;;;;;5078489;28;20419;-60
2022/12/03 01:49:16;;;;;;;29.00;17.03;;;1.40;99.90;;;;;;5077978;28;20463;-54
2022/12/03 01:51:44;;;;;;;25.83;13.03;;;1.40;99.90;;;;;;5078272;28;20451;-51
2022/12/03 01:54:19;;;;;;;27.30;15.23;;;1.30;99.90;;;;;;5078241;28;20463;-54
2022/12/03 01:56:47;;;;;;;26.97;13.47;;;1.30;99.90;;;;;;5078579;28;20423;-57
2022/12/03 01:59:16;;;;;;;26.00;14.67;;;1.30;99.90;;;;;;5077875;28;20431;-55
2022/12/03 02:01:44;;;;;;;27.20;14.00;;;1.30;99.90;;;;;;5078470;28;20431;-48
2022/12/03 02:04:13;;;;;;;28.80;16.20;;;1.30;99.90;;;;;;5078306;28;20439;-56
2022/12/03 02:06:41;;;;;;;32.63;15.10;;;1.30;99.90;;;;;;5077980;28;20462;-57
2022/12/03 02:09:10;;;;;;;25.13;14.50;;;1.30;99.90;;;;;;5077808;28;20423;-60
2022/12/03 02:11:42;;;;;;;29.33;13.33;;;1.30;99.90;;;;;;5077691;28;20439;-58
2022/12/03 02:14:12;;;;;;;30.57;15.00;;;1.30;99.90;;;;;;5078204;28;20454;-55
2022/12/03 02:16:40;;;;;;;25.73;14.37;;;1.30;99.90;;;;;;5077922;28;20459;-61
2022/12/03 02:19:15;;;;;;;41.00;15.50;;;1.20;99.90;;;;;;5077924;28;20426;-45
2022/12/03 02:21:46;;;;;;;28.13;14.50;;;1.20;99.90;;;;;;5068748;28;20486;-52
2022/12/03 02:24:22;;;;;;;25.33;12.97;;;1.30;99.90;;;;;;5078350;28;20439;-47
2022/12/03 02:26:52;;;;;;;30.50;13.83;;;1.30;99.90;;;;;;5078147;28;20435;-56
2022/12/03 02:29:20;;;;;;;29.57;11.90;;;1.30;99.90;;;;;;5077711;28;20481;-53
2022/12/03 02:31:47;;;;;;;28.27;15.47;;;1.30;99.90;;;;;;5077922;28;20474;-53
2022/12/03 02:34:35;;;;;;;32.20;15.80;;;1.30;99.90;;;;;;5078015;28;20489;-50
2022/12/03 02:37:04;;;;;;;30.90;13.70;;;1.20;99.90;;;;;;5070259;28;20452;-47
2022/12/03 02:39:32;;;;;;;26.83;12.37;;;1.20;99.90;;;;;;5078078;28;20564;-47
2022/12/03 02:44:45;;;;;;;30.53;14.27;;;1.20;99.90;;;;;;5077963;28;20458;-51
2022/12/03 02:47:12;;;;;;;33.43;16.10;;;1.20;99.90;;;;;;5077771;28;20501;-52
2022/12/03 02:49:43;;;;;;;30.80;12.73;;;1.20;99.90;;;;;;5077691;28;20459;-58
2022/12/03 02:52:10;;;;;;;28.60;15.23;;;1.20;99.90;;;;;;5073836;28;20447;-67
2022/12/03 02:54:43;;;;;;;19.60;12.40;;;1.20;99.90;;;;;;5075701;28;20443;-56
2022/12/03 02:57:13;;;;;;;28.60;14.37;;;1.20;99.90;;;;;;5077113;28;20442;-58
2022/12/03 02:59:40;;;;;;;26.60;13.23;;;1.20;99.90;;;;;;5071918;28;20428;-59
2022/12/03 03:02:11;;;;;;;23.80;13.50;;;1.20;99.90;;;;;;5076643;28;20466;-56
2022/12/03 03:04:38;;;;;;;23.40;13.80;;;1.20;99.90;;;;;;5077072;28;20408;-51
2022/12/03 03:07:08;;;;;;;26.80;14.00;;;1.20;99.90;;;;;;5077036;28;20467;-47
2022/12/03 03:09:37;;;;;;;35.90;15.47;;;1.20;99.90;;;;;;5076731;28;20428;-55
2022/12/03 03:12:07;;;;;;;22.53;11.03;;;1.20;99.90;;;;;;5076316;28;20471;-50
2022/12/03 03:14:36;;;;;;;22.30;12.10;;;1.20;99.90;;;;;;5076812;28;20477;-57
2022/12/03 03:17:03;;;;;;;29.33;15.33;;;1.20;99.90;;;;;;5076390;28;20427;-50
2022/12/03 03:19:30;;;;;;;28.63;13.77;;;1.20;99.90;;;;;;5076861;28;20443;-54
2022/12/03 03:21:57;;;;;;;24.97;12.17;;;1.30;99.90;;;;;;5076008;28;20810;-65
2022/12/03 03:24:25;;;;;;;32.50;16.00;;;1.30;99.90;;;;;;5074355;28;20518;-52
2022/12/03 03:26:54;;;;;;;37.87;14.87;;;1.30;99.90;;;;;;5076512;28;20431;-60
2022/12/03 03:29:24;;;;;;;27.53;12.57;;;1.30;99.90;;;;;;5076313;28;20478;-55
2022/12/03 03:31:55;;;;;;;26.60;12.53;;;1.30;99.90;;;;;;5073418;28;20440;-48
2022/12/03 03:34:27;;;;;;;24.73;13.33;;;1.30;99.90;;;;;;5076834;28;20489;-60
2022/12/03 03:36:57;;;;;;;34.50;17.50;;;1.30;99.90;;;;;;5071254;28;20438;-64
2022/12/03 03:39:28;;;;;;;33.63;14.00;;;1.30;99.90;;;;;;5076280;28;20443;-54
2022/12/03 03:41:56;;;;;;;25.27;13.93;;;1.30;99.90;;;;;;5070237;28;20428;-64
2022/12/03 03:44:26;;;;;;;29.00;12.47;;;1.20;99.90;;;;;;5076235;28;20489;-49
2022/12/03 03:46:54;;;;;;;32.93;14.27;;;1.20;99.90;;;;;;5076105;28;20471;-55
2022/12/03 03:49:22;;;;;;;27.60;13.20;;;1.20;99.90;;;;;;5075854;28;20434;-60
2022/12/03 03:51:51;;;;;;;24.00;13.40;;;1.20;99.90;;;;;;5073875;28;20463;-67
2022/12/03 03:54:18;;;;;;;26.97;13.30;;;1.90;99.90;;;;;;5070878;28;20434;-65
2022/12/03 03:56:45;;;;;;;32.60;12.83;;;1.20;99.90;;;;;;5069610;28;20442;-56
2022/12/03 03:59:13;;;;;;;29.17;14.33;;;1.20;99.90;;;;;;5076636;28;20450;-49
2022/12/03 04:01:40;;;;;;;21.17;14.70;;;1.20;99.90;;;;;;5076240;28;20419;-54
2022/12/03 04:04:17;;;;;;;23.43;13.80;;;1.20;99.90;;;;;;5076611;28;20483;-56
2022/12/03 04:06:46;;;;;;;43.10;14.87;;;1.20;99.90;;;;;;5076360;28;20427;-60
2022/12/03 04:09:15;;;;;;;24.50;13.40;;;1.20;99.90;;;;;;5076422;28;20486;-54
2022/12/03 04:14:27;;;;;;;24.10;13.10;;;1.20;99.90;;;;;;5076184;28;20466;-53
2022/12/03 04:16:54;;;;;;;19.73;14.07;;;1.20;99.90;;;;;;5075791;28;20459;-52
2022/12/03 04:19:22;;;;;;;27.60;12.07;;;1.10;99.90;;;;;;5075472;28;20446;-64
2022/12/03 04:24:33;;;;;;;35.13;15.13;;;1.20;99.90;;;;;;5080004;28;20541;-51
2022/12/03 04:29:48;;;;;;;30.20;14.90;;;1.20;99.90;;;;;;5078791;28;20419;-54
2022/12/03 04:37:50;;;;;;;23.87;12.60;;;1.20;99.90;;;;;;5079342;28;20946;-54
2022/12/03 04:43:03;;;;;;;34.07;13.30;;;1.10;99.90;;;;;;5046734;28;20455;-68
2022/12/03 04:45:30;;;;;;;26.47;13.60;;;1.10;99.90;;;;;;5077946;28;20434;-59
2022/12/03 04:47:56;;;;;;;26.23;14.97;;;1.20;99.90;;;;;;5079098;28;20459;-57
2022/12/03 04:50:26;;;;;;;24.07;14.30;;;1.20;99.90;;;;;;5079596;28;20477;-52
2022/12/03 04:52:55;;;;;;;22.00;11.37;;;1.10;99.90;;;;;;5080002;28;20455;-47
2022/12/03 04:55:21;;;;;;;21.53;11.53;;;1.10;99.90;;;;;;5079391;28;20442;-53
2022/12/03 04:57:48;;;;;;;29.93;14.20;;;1.10;99.90;;;;;;5079772;28;20443;-53
2022/12/03 05:00:18;;;;;;;26.30;14.10;;;1.20;99.90;;;;;;5079546;28;20443;-52
2022/12/03 05:02:44;;;;;;;25.50;12.37;;;1.10;99.90;;;;;;5079244;28;20471;-56
2022/12/03 05:05:11;;;;;;;24.73;12.07;;;1.10;99.90;;;;;;5079660;28;20447;-48
2022/12/03 05:07:41;;;;;;;21.47;11.83;;;1.10;99.90;;;;;;5079343;28;20458;-52
2022/12/03 05:10:09;;;;;;;18.83;11.27;;;1.10;99.90;;;;;;5079078;28;20679;-62
2022/12/03 05:12:39;;;;;;;23.70;15.10;;;1.10;99.90;;;;;;5073823;28;20435;-60
2022/12/03 05:15:07;;;;;;;32.93;13.50;;;1.20;99.90;;;;;;5072895;28;20596;-65
2022/12/03 05:17:35;;;;;;;24.70;12.60;;;1.10;99.90;;;;;;5077638;28;20452;-60
2022/12/03 05:22:49;;;;;;;30.33;12.73;;;1.10;99.90;;;;;;5079004;28;20443;-56
2022/12/03 05:25:18;;;;;;;27.00;13.87;;;1.10;99.90;;;;;;5078859;28;20466;-53
2022/12/03 05:27:45;;;;;;;29.00;13.30;;;1.10;99.90;;;;;;5078479;28;20439;-55
2022/12/03 05:30:14;;;;;;;26.40;13.77;;;1.00;99.90;;;;;;5078927;28;20431;-53
2022/12/03 05:32:41;;;;;;;29.97;13.00;;;1.00;99.90;;;;;;5078596;28;20467;-59
2022/12/03 05:35:09;;;;;;;35.83;14.13;;;1.00;99.90;;;;;;5078311;28;20478;-51
2022/12/03 05:37:36;;;;;;;31.00;14.43;;;1.00;99.90;;;;;;5077822;28;20454;-55
2022/12/03 05:40:13;;;;;;;30.67;12.77;;;1.10;99.90;;;;;;5077950;28;20470;-56
2022/12/03 05:42:55;;;;;;;21.07;10.70;;;1.10;99.90;;;;;;5078227;28;20439;-52
2022/12/03 05:45:27;;;;;;;28.57;15.30;;;1.10;99.90;;;;;;5078496;28;20431;-50
2022/12/03 05:47:55;;;;;;;36.67;15.50;;;1.10;99.90;;;;;;5078417;28;20442;-57
2022/12/03 05:50:24;;;;;;;20.30;14.73;;;1.10;99.90;;;;;;5077854;28;20486;-55
2022/12/03 05:52:51;;;;;;;27.37;16.50;;;1.10;99.90;;;;;;5077843;28;20448;-52
2022/12/03 05:55:21;;;;;;;20.77;12.47;;;1.10;99.90;;;;;;5072053;28;20486;-55
2022/12/03 05:57:48;;;;;;;28.87;13.23;;;1.10;99.90;;;;;;5076572;28;20718;-59
2022/12/03 06:00:32;;;;;;;22.27;11.70;;;1.10;99.90;;;;;;5078162;28;20447;-53
2022/12/03 06:02:59;;;;;;;27.70;13.13;;;1.10;99.90;;;;;;5077849;28;20444;-56
2022/12/03 06:05:27;;;;;;;33.57;12.90;;;1.00;99.90;;;;;;5077307;28;20463;-63
2022/12/03 06:07:54;;;;;;;21.57;12.00;;;1.00;99.90;;;;;;5077796;28;20442;-57
2022/12/03 06:10:25;;;;;;;39.33;17.13;;;1.00;99.90;;;;;;5077484;28;20710;-49
2022/12/03 06:12:52;;;;;;;32.47;16.50;;;1.00;99.90;;;;;;5077821;28;20415;-53
2022/12/03 06:15:22;;;;;;;21.03;12.80;;;1.00;99.90;;;;;;5077846;28;20431;-61
2022/12/03 06:17:52;;;;;;;26.70;13.53;;;1.00;99.90;;;;;;5077759;28;20467;-55
2022/12/03 06:20:20;;;;;;;23.17;13.27;;;0.80;99.90;;;;;;5077180;28;20440;-62
2022/12/03 06:22:48;;;;;;;32.07;14.30;;;0.80;99.90;;;;;;5076835;28;20467;-49
2022/12/03 06:25:15;;;;;;;40.23;18.00;;;0.80;99.90;;;;;;5077324;28;20772;-56
2022/12/03 06:27:44;;;;;;;40.13;19.80;;;0.80;99.90;;;;;;5076543;28;20466;-58
2022/12/03 06:30:13;;;;;;;32.07;15.70;;;0.80;99.90;;;;;;5070846;28;20431;-53
2022/12/03 06:32:40;;;;;;;30.13;14.60;;;0.80;99.90;;;;;;5076900;28;20447;-59
2022/12/03 06:35:08;;;;;;;40.20;13.97;;;0.80;99.90;;;;;;5076963;28;20439;-62
2022/12/03 06:37:35;;;;;;;29.47;14.33;;;0.80;99.90;;;;;;5076605;28;20446;-56
2022/12/03 06:40:01;;;;;;;39.50;17.53;;;0.80;99.90;;;;;;5076714;28;20463;-52
2022/12/03 06:42:30;;;;;;;25.03;14.53;;;0.80;99.90;;;;;;5076618;28;20423;-58
2022/12/03 06:44:58;;;;;;;30.30;14.60;;;0.70;99.90;;;;;;5076309;28;20542;-59
2022/12/03 06:47:25;;;;;;;22.87;12.77;;;0.70;99.90;;;;;;5067022;28;20443;-55
2022/12/03 06:49:54;;;;;;;25.83;13.33;;;0.70;99.90;;;;;;5076405;28;20505;-55
2022/12/03 06:52:21;;;;;;;29.40;14.60;;;0.70;99.90;;;;;;5075199;28;20427;-69
2022/12/03 06:54:48;;;;;;;33.07;16.17;;;0.70;99.90;;;;;;5070192;28;20495;-60
2022/12/03 06:57:15;;;;;;;24.60;10.73;;;0.70;99.90;;;;;;5076576;28;20530;-60
2022/12/03 06:59:42;;;;;;;29.13;14.93;;;0.70;99.90;;;;;;5075245;28;20505;-60
2022/12/03 07:02:11;;;;;;;28.87;14.33;;;0.70;99.90;;;;;;5077243;28;20467;-48
2022/12/03 07:04:38;;;;;;;31.57;14.47;;;0.70;99.90;;;;;;5077281;28;20471;-56
2022/12/03 07:07:07;;;;;;;26.77;14.30;;;0.80;99.90;;;;;;5077641;28;20474;-53
2022/12/03 07:09:34;;;;;;;42.90;15.90;;;0.80;99.90;;;;;;5077802;28;20439;-61
2022/12/03 07:12:01;;;;;;;31.13;16.93;;;0.70;99.90;;;;;;5077592;28;20451;-52
2022/12/03 07:14:28;;;;;;;28.83;13.40;;;0.70;99.90;;;;;;5073278;28;20428;-72
2022/12/03 07:16:54;;;;;;;26.27;14.20;;;0.70;99.90;;;;;;5074522;28;20416;-44
2022/12/03 07:19:25;;;;;;;40.40;15.53;;;0.80;99.90;;;;;;5068735;28;20451;-45
2022/12/03 07:21:55;;;;;;;25.23;16.27;;;0.70;99.90;;;;;;5075226;28;20482;-55
2022/12/03 07:24:22;;;;;;;25.30;13.47;;;0.70;99.90;;;;;;5072384;28;20487;-70
2022/12/03 07:26:48;;;;;;;30.53;18.47;;;0.70;99.90;;;;;;5070061;28;20449;-66
2022/12/03 07:29:15;;;;;;;31.30;13.70;;;0.70;99.90;;;;;;5076233;28;20455;-60
2022/12/03 07:31:42;;;;;;;36.10;15.67;;;0.60;99.90;;;;;;5076547;28;20439;-56
2022/12/03 07:34:09;;;;;;;23.43;14.27;;;0.60;99.90;;;;;;5076589;28;20419;-51
2022/12/03 07:36:37;;;;;;;37.20;15.17;;;0.60;99.90;;;;;;5076489;28;20435;-54
2022/12/03 07:39:05;;;;;;;27.63;15.00;;;0.60;99.90;;;;;;5075725;28;20424;-60
2022/12/03 07:41:32;;;;;;;29.93;17.80;;;0.60;99.90;;;;;;5075874;28;20463;-64
2022/12/03 07:43:59;;;;;;;34.30;14.97;;;0.60;99.90;;;;;;5075782;28;20463;-58
2022/12/03 07:46:26;;;;;;;30.60;14.37;;;0.60;99.90;;;;;;5075530;28;20458;-57
2022/12/03 07:48:53;;;;;;;24.57;8.73;;;0.70;99.90;;;;;;5075986;28;20443;-66
2022/12/03 07:51:19;;;;;;;32.63;15.70;;;0.60;99.90;;;;;;5075966;28;20427;-54
2022/12/03 07:53:48;;;;;;;49.90;16.37;;;0.60;99.90;;;;;;5075607;28;20444;-62
2022/12/03 07:56:15;;;;;;;27.20;14.27;;;0.60;99.90;;;;;;5075510;28;20427;-58
2022/12/03 07:58:42;;;;;;;26.10;15.63;;;0.60;99.90;;;;;;5079249;28;20466;-63
2022/12/03 08:01:09;;;;;;;34.40;15.90;;;0.70;99.90;;;;;;5077224;28;20461;-57
2022/12/03 08:03:37;;;;;;;33.30;16.60;;;0.70;99.90;;;;;;5079776;28;20455;-64
2022/12/03 08:06:04;;;;;;;40.50;20.67;;;0.70;99.90;;;;;;5079131;28;20411;-49
2022/12/03 08:08:31;;;;;;;28.20;14.60;;;0.70;99.90;;;;;;5079660;28;20430;-55
2022/12/03 08:11:02;;;;;;;42.13;15.90;;;0.70;99.90;;;;;;5079474;28;20431;-53
2022/12/03 08:13:29;;;;;;;31.87;16.47;;;0.70;99.90;;;;;;5080177;28;20473;-51
2022/12/03 08:15:57;;;;;;;28.80;13.90;;;0.70;99.90;;;;;;5081349;28;20435;-52
2022/12/03 08:18:24;;;;;;;34.50;19.37;;;0.70;99.90;;;;;;5081881;28;20431;-53
2022/12/03 08:20:51;;;;;;;32.70;15.70;;;0.70;99.90;;;;;;5081360;28;20467;-58
2022/12/03 08:23:21;;;;;;;25.67;13.80;;;0.70;99.90;;;;;;5081674;28;20439;-57
2022/12/03 08:25:49;;;;;;;29.63;15.80;;;0.70;99.90;;;;;;5081420;28;20486;-54
2022/12/03 08:28:19;;;;;;;34.67;18.20;;;0.70;99.90;;;;;;5080901;28;20438;-55
2022/12/03 08:30:58;;;;;;;46.13;17.80;;;0.60;99.90;;;;;;5080937;28;20443;-57
2022/12/03 08:33:27;;;;;;;37.67;19.87;;;0.70;99.90;;;;;;5081165;28;20424;-55
2022/12/03 08:35:55;;;;;;;35.37;17.47;;;0.70;99.90;;;;;;5080861;28;20486;-59
2022/12/03 08:38:24;;;;;;;33.30;15.33;;;0.70;99.90;;;;;;5080955;28;20533;-52
2022/12/03 08:40:54;;;;;;;41.30;17.23;;;0.70;99.90;;;;;;5080839;28;20434;-54
2022/12/03 08:43:23;;;;;;;31.23;15.00;;;0.70;99.90;;;;;;5080458;28;20446;-57
2022/12/03 08:45:51;;;;;;;38.40;17.83;;;0.80;99.90;;;;;;5080580;28;20522;-56
2022/12/03 08:53:32;;;;;;;34.47;15.47;;;0.80;99.90;;;;;;4595213;26;20467;-62
2022/12/03 08:56:02;;;;;;;35.83;14.93;;;0.80;99.90;;;;;;5057363;28;20435;-63
2022/12/03 08:58:42;;;;;;;38.07;14.47;;;0.90;99.90;;;;;;5053213;28;20417;-62
2022/12/03 09:01:32;;;;;;;33.90;15.53;;;0.90;99.90;;;;;;5059051;28;20439;-61
2022/12/03 09:04:19;;;;;;;35.40;17.80;;;1.00;99.90;;;;;;5056225;28;20456;-58
2022/12/03 09:06:50;;;;;;;34.27;14.17;;;1.00;99.90;;;;;;5052839;28;20435;-62
2022/12/03 09:09:19;;;;;;;40.07;14.10;;;1.00;99.90;;;;;;5056482;28;20436;-64
2022/12/03 09:11:46;;;;;;;31.13;17.93;;;1.00;99.90;;;;;;5058834;28;20478;-60
2022/12/03 09:14:16;;;;;;;31.07;16.17;;;1.40;99.90;;;;;;5058528;28;20498;-65
2022/12/03 09:16:46;;;;;;;20.73;15.53;;;1.30;99.90;;;;;;5057507;28;20451;-60
2022/12/03 09:19:13;;;;;;;23.40;13.67;;;1.30;99.90;;;;;;5057591;28;20482;-65
2022/12/03 09:21:40;;;;;;;37.23;17.40;;;1.30;99.90;;;;;;5057380;28;20479;-65
2022/12/03 09:24:07;;;;;;;32.57;13.67;;;1.20;99.90;;;;;;5057235;28;20478;-59
2022/12/03 09:26:34;;;;;;;28.70;13.57;;;1.30;99.90;;;;;;5056849;28;20460;-61
2022/12/03 09:29:01;;;;;;;26.77;14.13;;;1.30;99.90;;;;;;5057418;28;20768;-65
2022/12/03 09:31:31;;;;;;;40.57;16.50;;;1.30;99.90;;;;;;5056615;28;20464;-62
2022/12/03 09:33:59;;;;;;;30.03;15.70;;;1.40;99.90;;;;;;5049121;28;20455;-66
2022/12/03 09:36:26;;;;;;;27.90;15.93;;;1.50;99.90;;;;;;5055341;28;20465;-64
2022/12/03 09:38:53;;;;;;;30.33;15.37;;;1.50;99.90;;;;;;5057554;28;20436;-66
2022/12/03 09:41:20;;;;;;;29.70;17.00;;;1.50;99.90;;;;;;5058135;28;20440;-65
2022/12/03 09:43:47;;;;;;;29.63;14.27;;;1.50;99.90;;;;;;5058509;28;20463;-62
2022/12/03 09:46:14;;;;;;;39.07;17.00;;;1.50;99.90;;;;;;5058518;28;20483;-63
2022/12/03 09:48:42;;;;;;;25.20;14.37;;;1.50;99.90;;;;;;5058605;28;20432;-61
2022/12/03 09:51:10;;;;;;;25.33;14.93;;;1.50;99.90;;;;;;5058835;28;20459;-58
2022/12/03 09:53:38;;;;;;;21.77;13.67;;;1.40;99.90;;;;;;5058419;28;20463;-65
2022/12/03 09:56:06;;;;;;;28.83;15.87;;;1.40;99.90;;;;;;5053936;28;20455;-62
2022/12/03 09:58:33;;;;;;;28.67;16.40;;;1.30;99.90;;;;;;5057030;28;20464;-59
2022/12/03 10:00:59;;;;;;;33.87;16.60;;;1.30;99.90;;;;;;5058022;28;20447;-60
2022/12/03 10:03:31;;;;;;;33.53;13.73;;;1.20;99.90;;;;;;5057449;28;20436;-64
2022/12/03 10:06:00;;;;;;;26.50;15.50;;;1.30;99.90;;;;;;5057899;28;20918;-65
2022/12/03 10:08:29;;;;;;;29.77;16.67;;;1.30;99.90;;;;;;5056252;28;20465;-59
2022/12/03 10:10:57;;;;;;;29.93;14.53;;;1.20;99.90;;;;;;5050428;28;20429;-64
2022/12/03 10:13:28;;;;;;;29.30;14.03;;;1.30;99.90;;;;;;5057640;28;20463;-64
2022/12/03 10:15:59;;;;;;;35.00;13.00;;;1.20;99.90;;;;;;5058837;28;20420;-59
2022/12/03 10:18:29;;;;;;;24.20;12.50;;;1.20;99.90;;;;;;5058420;28;20476;-66
2022/12/03 10:20:56;;;;;;;22.67;12.93;;;1.30;99.90;;;;;;5057861;28;20475;-58
2022/12/03 10:23:27;;;;;;;27.23;13.20;;;1.30;99.90;;;;;;5059007;28;20468;-62
2022/12/03 10:25:56;;;;;;;38.60;15.57;;;1.30;99.90;;;;;;5059238;28;20463;-59
2022/12/03 10:28:34;;;;;;;38.43;14.47;;;1.30;99.90;;;;;;5058582;28;20468;-59
2022/12/03 10:31:03;;;;;;;49.20;16.23;;;1.30;99.90;;;;;;5058287;28;20421;-54
2022/12/03 10:33:33;;;;;;;34.53;14.00;;;1.20;99.90;;;;;;5057810;28;20448;-66
2022/12/03 10:36:19;;;;;;;27.70;12.73;;;1.20;99.90;;;;;;5058293;28;20419;-59
2022/12/03 10:39:11;;;;;;;42.43;20.43;;;1.20;99.90;;;;;;5057376;28;20479;-65
2022/12/03 10:41:39;;;;;;;32.37;15.80;;;1.20;99.90;;;;;;5058533;28;20466;-62
2022/12/03 10:44:17;;;;;;;41.27;16.03;;;1.20;99.90;;;;;;5057998;28;20479;-57
2022/12/03 10:46:44;;;;;;;34.17;16.37;;;1.20;99.90;;;;;;5056371;28;20439;-59
2022/12/03 10:49:17;;;;;;;31.47;17.43;;;1.20;99.90;;;;;;5058026;28;20448;-58
2022/12/03 10:51:45;;;;;;;30.87;11.53;;;1.20;99.90;;;;;;5051748;28;20488;-64
2022/12/03 10:54:17;;;;;;;37.63;14.47;;;1.20;99.90;;;;;;5057981;28;20455;-61
2022/12/03 10:56:45;;;;;;;31.50;14.50;;;1.20;99.90;;;;;;5057997;28;20432;-60
2022/12/03 10:59:18;;;;;;;32.33;14.03;;;1.30;99.90;;;;;;5057740;28;20463;-63
2022/12/03 11:01:45;;;;;;;31.97;15.30;;;1.30;99.90;;;;;;5051280;28;20560;-66
2022/12/03 11:04:20;;;;;;;31.57;14.33;;;1.30;99.90;;;;;;5057058;28;20416;-56
2022/12/03 11:06:48;;;;;;;35.23;16.47;;;1.30;99.90;;;;;;5057235;28;20420;-66
2022/12/03 11:09:24;;;;;;;24.50;11.20;;;1.30;99.90;;;;;;5056901;28;20433;-66
2022/12/03 11:11:53;;;;;;;26.93;14.30;;;1.30;99.90;;;;;;5056864;28;20428;-66
2022/12/03 11:15:03;;;;;;;40.33;15.13;;;1.30;99.90;;;;;;5057493;28;20432;-65
2022/12/03 11:17:45;;;;;;;32.60;15.50;;;1.30;99.90;;;;;;5057623;28;20435;-60
2022/12/03 11:20:46;;;;;;;27.10;13.73;;;1.30;99.90;;;;;;5052870;28;20424;-61
2022/12/03 11:23:15;;;;;;;40.87;14.53;;;1.30;99.90;;;;;;5016259;28;20445;-66
2022/12/03 11:25:49;;;;;;;43.87;18.33;;;1.30;99.90;;;;;;5016198;28;20478;-52
2022/12/03 11:28:36;;;;;;;32.83;13.73;;;1.30;99.90;;;;;;5036103;28;20466;-67
2022/12/03 11:31:13;;;;;;;34.27;14.60;;;1.30;99.90;;;;;;5057729;28;20494;-67
2022/12/03 11:33:43;;;;;;;36.37;13.70;;;1.30;99.90;;;;;;5051175;28;20504;-59
2022/12/03 11:36:19;;;;;;;36.87;16.17;;;1.40;99.90;;;;;;5057923;28;20460;-65
2022/12/03 11:38:57;;;;;;;31.17;12.53;;;1.40;99.90;;;;;;5058226;28;20423;-64
2022/12/03 11:41:38;;;;;;;29.10;13.00;;;1.40;99.90;;;;;;5057300;28;21264;-59
2022/12/03 11:44:30;;;;;;;30.60;14.30;;;1.40;99.90;;;;;;5057574;28;20460;-64
2022/12/03 11:47:12;;;;;;;33.27;14.13;;;1.50;99.90;;;;;;5057559;28;20447;-63
2022/12/03 11:49:48;;;;;;;42.10;14.17;;;1.50;99.90;;;;;;5057970;28;20448;-61
2022/12/03 11:52:32;;;;;;;36.73;14.53;;;1.50;99.90;;;;;;5057548;28;20475;-65
2022/12/03 11:55:14;;;;;;;25.73;12.70;;;1.50;99.90;;;;;;5058006;28;20425;-59
2022/12/03 11:57:43;;;;;;;23.97;12.87;;;1.50;99.90;;;;;;5057439;28;20456;-65
2022/12/03 12:00:19;;;;;;;47.53;15.03;;;1.50;99.90;;;;;;5056722;28;20475;-66
2022/12/03 12:02:47;;;;;;;39.53;14.63;;;1.40;99.90;;;;;;5056353;28;20488;-63
2022/12/03 12:05:20;;;;;;;36.27;13.17;;;1.40;99.90;;;;;;5055902;28;20475;-66
2022/12/03 12:07:47;;;;;;;30.37;12.90;;;1.40;99.90;;;;;;5055666;28;20521;-67
2022/12/03 12:10:15;;;;;;;27.23;13.77;;;1.50;99.90;;;;;;5057449;28;20453;-62
2022/12/03 12:12:44;;;;;;;38.80;15.43;;;1.50;99.90;;;;;;5056588;28;20472;-65
2022/12/03 12:15:48;;;;;;;30.53;13.03;;;1.50;99.90;;;;;;5056832;28;20474;-63
2022/12/03 12:18:41;;;;;;;28.87;13.47;;;1.50;99.90;;;;;;5056812;28;20471;-56
2022/12/03 12:21:40;;;;;;;30.27;15.60;;;1.50;99.90;;;;;;5056373;28;20424;-62
2022/12/03 12:24:37;;;;;;;29.53;14.13;;;1.50;99.90;;;;;;5051250;28;20525;-63
2022/12/03 12:27:06;;;;;;;28.90;14.47;;;1.50;99.90;;;;;;5056943;28;20416;-57
2022/12/03 12:29:35;;;;;;;37.37;12.27;;;1.50;99.90;;;;;;5057059;28;20496;-65
2022/12/03 12:32:15;;;;;;;26.10;13.80;;;1.50;99.90;;;;;;5057636;28;20428;-57
2022/12/03 12:34:45;;;;;;;23.10;11.30;;;1.50;99.90;;;;;;5057398;28;20476;-60
2022/12/03 12:37:15;;;;;;;28.07;11.00;;;1.50;99.90;;;;;;5057066;28;20425;-61
2022/12/03 12:39:42;;;;;;;27.33;10.27;;;1.50;99.90;;;;;;5056635;28;20478;-67
2022/12/03 12:42:27;;;;;;;30.70;13.93;;;1.50;99.90;;;;;;5056233;28;20455;-66
2022/12/03 12:44:59;;;;;;;18.20;10.43;;;1.50;99.90;;;;;;5058265;28;20439;-63
2022/12/03 12:47:28;;;;;;;24.57;11.07;;;1.50;99.90;;;;;;5060192;28;20479;-66
2022/12/03 12:49:56;;;;;;;34.23;16.53;;;1.50;99.90;;;;;;5060384;28;20454;-64
2022/12/03 12:52:23;;;;;;;43.53;12.90;;;1.40;99.90;;;;;;5059554;28;20459;-65
2022/12/03 12:54:50;;;;;;;30.73;15.97;;;1.50;99.90;;;;;;5059879;28;20425;-62
2022/12/03 12:57:21;;;;;;;20.13;9.23;;;1.50;99.90;;;;;;5053772;28;20448;-62
2022/12/03 12:59:48;;;;;;;35.30;13.90;;;1.50;99.90;;;;;;5059937;28;20412;-63
2022/12/03 13:02:40;;;;;;;30.40;10.90;;;1.50;99.90;;;;;;5060825;28;20455;-62
2022/12/03 13:05:11;;;;;;;39.03;18.27;;;1.50;99.90;;;;;;5060734;28;20453;-62
2022/12/03 13:07:38;;;;;;;30.93;16.17;;;1.50;99.90;;;;;;5061139;28;20424;-59
2022/12/03 13:10:35;;;;;;;22.83;13.27;;;1.50;99.90;;;;;;5060165;28;20444;-58
2022/12/03 13:13:26;;;;;;;37.17;15.67;;;1.40;99.90;;;;;;5060353;28;20416;-63
2022/12/03 13:15:59;;;;;;;37.27;14.33;;;1.40;99.90;;;;;;5058290;28;20478;-67
2022/12/03 13:18:32;;;;;;;26.20;13.63;;;1.40;99.90;;;;;;5059932;28;20437;-63
2022/12/03 13:21:06;;;;;;;28.63;12.37;;;1.40;99.90;;;;;;5060188;28;20437;-65
2022/12/03 13:23:35;;;;;;;22.03;11.60;;;1.40;99.90;;;;;;5060427;28;20444;-60
2022/12/03 13:26:06;;;;;;;30.73;11.90;;;1.40;99.90;;;;;;5060495;28;20486;-62
2022/12/03 13:28:35;;;;;;;36.60;15.03;;;1.40;99.90;;;;;;5060101;28;20429;-59
2022/12/03 13:31:21;;;;;;;33.07;14.63;;;1.40;99.90;;;;;;5060066;28;20460;-64
2022/12/03 13:33:49;;;;;;;34.37;16.63;;;1.40;99.90;;;;;;5060249;28;20419;-63
2022/12/03 13:36:18;;;;;;;25.10;14.63;;;1.40;99.90;;;;;;5059384;28;20461;-64
2022/12/03 13:38:45;;;;;;;33.93;13.77;;;1.40;99.90;;;;;;5059531;28;20440;-66